Time;durP1;ratioP1;P1;durP2;ratioP2;P2;SDS_P1;SDS_P2;PMS_P1;PMS_P2;Temp;Humidity;BMP_temperature;BMP_pressure;BME280_temperature;BME280_humidity;BME280_pressure;Samples;Min_cycle;Max_cycle;Signal;HPM_P1;HPM_P2
2021/11/06 00:01:15;;;;;;;;;;;21.40;36.80;;;;;;5094624;28;19999;-78
2021/11/06 00:03:41;;;;;;;;;;;18.30;38.80;;;;;;5077372;28;19915;-77
2021/11/06 00:06:08;;;;;;;;;;;18.40;41.20;;;;;;5077364;28;20006;-77
2021/11/06 00:08:34;;;;;;;;;;;19.60;41.80;;;;;;5077836;28;19918;-77
2021/11/06 00:11:04;;;;;;;;;;;20.90;41.30;;;;;;5077468;28;19999;-75
2021/11/06 00:13:30;;;;;;;;;;;21.90;40.20;;;;;;5077129;28;19912;-79
2021/11/06 00:15:56;;;;;;;;;;;22.60;39.30;;;;;;5077048;28;19919;-79
2021/11/06 00:18:22;;;;;;;;;;;23.20;38.60;;;;;;5111038;28;19908;-79
2021/11/06 00:20:48;;;;;;;;;;;23.60;38.00;;;;;;5094971;28;19955;-78
2021/11/06 00:23:14;;;;;;;;;;;23.90;37.50;;;;;;5095062;28;19955;-78
2021/11/06 00:25:43;;;;;;;;;;;24.10;37.40;;;;;;5095337;28;19916;-80
2021/11/06 00:28:08;;;;;;;;;;;24.30;37.40;;;;;;5111183;28;19951;-77
2021/11/06 00:30:34;;;;;;;;;;;24.40;37.40;;;;;;5097557;28;19919;-78
2021/11/06 00:32:59;;;;;;;;;;;24.40;37.50;;;;;;5115099;28;19908;-78
2021/11/06 00:35:27;;;;;;;;;;;24.50;37.60;;;;;;5115084;28;20344;-81
2021/11/06 00:37:53;;;;;;;;;;;24.50;37.60;;;;;;5098218;28;20088;-77
2021/11/06 00:40:18;;;;;;;;;;;24.50;37.70;;;;;;5098651;28;20419;-79
2021/11/06 00:42:44;;;;;;;;;;;24.50;37.80;;;;;;5115035;28;20303;-78
2021/11/06 00:45:09;;;;;;;;;;;24.60;38.00;;;;;;5097905;28;20495;-77
2021/11/06 00:47:40;;;;;;;;;;;24.60;38.00;;;;;;5115004;28;19913;-80
2021/11/06 00:50:09;;;;;;;;;;;24.70;38.10;;;;;;5098706;28;19915;-79
2021/11/06 00:52:36;;;;;;;;;;;24.60;38.20;;;;;;5098602;28;20003;-80
2021/11/06 00:55:02;;;;;;;;;;;24.60;38.30;;;;;;5097338;28;19916;-77
2021/11/06 00:57:30;;;;;;;;;;;24.60;38.40;;;;;;5098688;28;19908;-78
2021/11/06 00:59:56;;;;;;;;;;;24.60;38.40;;;;;;5080681;28;19919;-78
2021/11/06 01:02:21;;;;;;;;;;;24.60;38.40;;;;;;5097473;28;19908;-78
2021/11/06 01:04:47;;;;;;;;;;;24.60;39.00;;;;;;5098297;28;20329;-78
2021/11/06 01:07:16;;;;;;;;;;;24.60;38.60;;;;;;5114619;28;19961;-77
2021/11/06 01:09:44;;;;;;;;;;;24.60;38.70;;;;;;5098408;28;19908;-76
2021/11/06 01:12:10;;;;;;;;;;;24.60;38.70;;;;;;5097395;28;19962;-77
2021/11/06 01:14:38;;;;;;;;;;;24.60;38.80;;;;;;5097460;28;20451;-79
2021/11/06 01:17:04;;;;;;;;;;;24.60;38.80;;;;;;5097269;28;20073;-77
2021/11/06 01:19:29;;;;;;;;;;;24.60;38.90;;;;;;5114058;28;20073;-76
2021/11/06 01:21:57;;;;;;;;;;;24.60;38.90;;;;;;5114283;28;19908;-78
2021/11/06 01:24:23;;;;;;;;;;;24.60;39.00;;;;;;5114120;28;19908;-77
2021/11/06 01:26:48;;;;;;;;;;;24.50;39.00;;;;;;5097881;28;19916;-77
2021/11/06 01:29:19;;;;;;;;;;;24.50;39.10;;;;;;5097877;28;19909;-77
2021/11/06 01:31:44;;;;;;;;;;;24.50;39.10;;;;;;5097848;28;19908;-77
2021/11/06 01:34:10;;;;;;;;;;;24.50;39.20;;;;;;5096853;28;19919;-79
2021/11/06 01:36:35;;;;;;;;;;;24.50;39.20;;;;;;5080076;28;20252;-78
2021/11/06 01:39:03;;;;;;;;;;;24.50;39.30;;;;;;5079801;28;20336;-78
2021/11/06 01:41:31;;;;;;;;;;;24.50;39.30;;;;;;5094902;28;19954;-79
2021/11/06 01:43:57;;;;;;;;;;;24.50;39.40;;;;;;5079691;28;19914;-79
2021/11/06 01:46:23;;;;;;;;;;;24.50;39.40;;;;;;5097619;28;19908;-79
2021/11/06 01:48:48;;;;;;;;;;;24.50;39.40;;;;;;5113743;28;19916;-77
2021/11/06 01:51:14;;;;;;;;;;;24.50;39.50;;;;;;5113587;28;19920;-78
2021/11/06 01:53:42;;;;;;;;;;;24.50;39.50;;;;;;5113533;28;20080;-78
2021/11/06 01:56:07;;;;;;;;;;;24.50;39.60;;;;;;5079631;28;20257;-80
2021/11/06 01:58:33;;;;;;;;;;;24.50;39.60;;;;;;5079480;28;19908;-78
2021/11/06 02:00:58;;;;;;;;;;;24.50;39.70;;;;;;5113333;28;19911;-78
2021/11/06 02:03:24;;;;;;;;;;;24.40;39.70;;;;;;5096572;28;19909;-78
2021/11/06 02:05:52;;;;;;;;;;;24.40;39.70;;;;;;5096411;28;19924;-77
2021/11/06 02:08:20;;;;;;;;;;;24.40;39.80;;;;;;5096261;28;19947;-78
2021/11/06 02:10:48;;;;;;;;;;;24.40;39.90;;;;;;5113370;28;19934;-77
2021/11/06 02:13:17;;;;;;;;;;;24.40;39.90;;;;;;5097010;28;19916;-77
2021/11/06 02:15:43;;;;;;;;;;;24.40;39.90;;;;;;5112856;28;19947;-77
2021/11/06 02:18:08;;;;;;;;;;;24.40;40.00;;;;;;5113189;28;19908;-77
2021/11/06 02:20:34;;;;;;;;;;;24.40;40.00;;;;;;5097192;28;19919;-78
2021/11/06 02:23:02;;;;;;;;;;;24.40;40.00;;;;;;5079394;28;19912;-77
2021/11/06 02:25:29;;;;;;;;;;;24.40;40.00;;;;;;5096814;28;19958;-79
2021/11/06 02:27:55;;;;;;;;;;;24.40;40.10;;;;;;5096675;28;19908;-77
2021/11/06 02:30:21;;;;;;;;;;;24.40;40.20;;;;;;5096652;28;20303;-78
2021/11/06 02:32:49;;;;;;;;;;;24.40;40.20;;;;;;5096830;28;20438;-80
2021/11/06 02:35:15;;;;;;;;;;;24.40;40.20;;;;;;5112919;28;19940;-76
2021/11/06 02:37:43;;;;;;;;;;;24.40;40.30;;;;;;5113048;28;19922;-80
2021/11/06 02:40:08;;;;;;;;;;;24.40;40.30;;;;;;5096494;28;19951;-80
2021/11/06 02:42:34;;;;;;;;;;;24.40;40.30;;;;;;5112922;28;20320;-78
2021/11/06 02:45:03;;;;;;;;;;;24.40;40.30;;;;;;5112649;28;20011;-79
2021/11/06 02:47:31;;;;;;;;;;;24.30;40.30;;;;;;5112218;28;20360;-78
2021/11/06 02:49:59;;;;;;;;;;;24.40;40.40;;;;;;5078466;28;19951;-76
2021/11/06 02:52:24;;;;;;;;;;;24.30;40.40;;;;;;5111780;28;19908;-77
2021/11/06 02:54:50;;;;;;;;;;;24.30;40.40;;;;;;5112743;28;19923;-78
2021/11/06 02:57:15;;;;;;;;;;;24.30;40.50;;;;;;5096120;28;20264;-77
2021/11/06 02:59:41;;;;;;;;;;;24.30;40.50;;;;;;5112263;28;19912;-78
2021/11/06 03:02:07;;;;;;;;;;;24.30;40.60;;;;;;5096128;28;19912;-79
2021/11/06 03:04:36;;;;;;;;;;;24.30;40.60;;;;;;5112464;28;19952;-79
2021/11/06 03:07:02;;;;;;;;;;;24.30;40.60;;;;;;5095948;28;19958;-79
2021/11/06 03:09:37;;;;;;;;;;;24.30;40.70;;;;;;5078198;28;19951;-79
2021/11/06 03:12:03;;;;;;;;;;;24.30;40.70;;;;;;5111180;28;20391;-78
2021/11/06 03:14:31;;;;;;;;;;;24.30;40.70;;;;;;5111995;28;19912;-78
2021/11/06 03:16:59;;;;;;;;;;;24.30;40.70;;;;;;5111791;28;19909;-77
2021/11/06 03:19:24;;;;;;;;;;;24.30;40.70;;;;;;5077929;28;19911;-78
2021/11/06 03:21:50;;;;;;;;;;;24.30;40.80;;;;;;5095659;28;19912;-77
2021/11/06 03:24:20;;;;;;;;;;;24.30;40.80;;;;;;5095749;28;19919;-76
2021/11/06 03:26:46;;;;;;;;;;;24.30;40.80;;;;;;5078146;28;19987;-77
2021/11/06 03:29:11;;;;;;;;;;;24.20;40.80;;;;;;5094837;28;19947;-78
2021/11/06 03:31:37;;;;;;;;;;;24.30;40.80;;;;;;5095926;28;19973;-77
2021/11/06 03:34:04;;;;;;;;;;;24.30;40.90;;;;;;5094816;28;19912;-76
2021/11/06 03:36:32;;;;;;;;;;;24.20;40.90;;;;;;5094232;28;19912;-77
2021/11/06 03:38:58;;;;;;;;;;;24.20;40.90;;;;;;5077652;28;20018;-78
2021/11/06 03:41:23;;;;;;;;;;;24.20;40.90;;;;;;5095527;28;20017;-79
2021/11/06 03:43:49;;;;;;;;;;;24.20;41.00;;;;;;5111656;28;20337;-81
2021/11/06 03:46:19;;;;;;;;;;;24.20;41.00;;;;;;5094772;28;21454;-76
2021/11/06 03:48:44;;;;;;;;;;;24.20;41.00;;;;;;5095672;28;19908;-76
2021/11/06 03:51:10;;;;;;;;;;;24.10;41.00;;;;;;5095440;28;19912;-78
2021/11/06 03:53:37;;;;;;;;;;;24.20;41.10;;;;;;5095348;28;19912;-77
2021/11/06 03:56:03;;;;;;;;;;;24.20;41.20;;;;;;5094480;28;19914;-80
2021/11/06 03:58:31;;;;;;;;;;;24.10;41.10;;;;;;5078174;28;19974;-79
2021/11/06 04:00:59;;;;;;;;;;;24.20;41.20;;;;;;5094319;28;19951;-78
2021/11/06 04:03:24;;;;;;;;;;;24.20;41.20;;;;;;5094676;28;19987;-79
2021/11/06 04:05:50;;;;;;;;;;;24.20;41.20;;;;;;5111296;28;19970;-77
2021/11/06 04:08:18;;;;;;;;;;;24.10;41.20;;;;;;5095292;28;20320;-78
2021/11/06 04:10:43;;;;;;;;;;;24.10;41.10;;;;;;5094213;28;20287;-77
2021/11/06 04:13:14;;;;;;;;;;;24.20;41.20;;;;;;5095378;28;19908;-77
2021/11/06 04:15:42;;;;;;;;;;;24.10;41.10;;;;;;5093975;28;19909;-78
2021/11/06 04:18:08;;;;;;;;;;;24.10;41.20;;;;;;5095150;28;19966;-78
2021/11/06 04:20:33;;;;;;;;;;;24.10;41.20;;;;;;5077700;28;20275;-77
2021/11/06 04:22:59;;;;;;;;;;;24.10;41.20;;;;;;5111491;28;19912;-78
2021/11/06 04:25:29;;;;;;;;;;;24.10;41.20;;;;;;5078160;28;19948;-76
2021/11/06 04:27:55;;;;;;;;;;;24.10;41.30;;;;;;5111374;28;19983;-80
2021/11/06 04:30:20;;;;;;;;;;;24.10;41.30;;;;;;5094406;28;20382;-75
2021/11/06 04:32:46;;;;;;;;;;;24.10;41.30;;;;;;5111605;28;19983;-76
2021/11/06 04:35:11;;;;;;;;;;;24.10;41.30;;;;;;5094926;28;19911;-76
2021/11/06 04:37:37;;;;;;;;;;;24.10;41.40;;;;;;5111114;28;20351;-77
2021/11/06 04:40:05;;;;;;;;;;;24.10;41.40;;;;;;5095068;28;19921;-78
2021/11/06 04:42:30;;;;;;;;;;;24.10;41.40;;;;;;5077429;28;19960;-79
2021/11/06 04:44:56;;;;;;;;;;;24.10;41.40;;;;;;5077167;28;19958;-77
2021/11/06 04:47:24;;;;;;;;;;;24.10;41.40;;;;;;5093692;28;20348;-78
2021/11/06 04:49:51;;;;;;;;;;;24.00;41.40;;;;;;5094682;28;19951;-77
2021/11/06 04:52:17;;;;;;;;;;;24.10;41.50;;;;;;5094951;28;19908;-77
2021/11/06 04:54:42;;;;;;;;;;;24.10;41.50;;;;;;5111091;28;19919;-77
2021/11/06 04:57:10;;;;;;;;;;;24.00;41.40;;;;;;5110837;28;19919;-79
2021/11/06 04:59:38;;;;;;;;;;;24.10;41.50;;;;;;5076863;28;19966;-76
2021/11/06 05:02:09;;;;;;;;;;;24.00;41.50;;;;;;5110983;28;20020;-76
2021/11/06 05:04:40;;;;;;;;;;;24.00;41.50;;;;;;5094747;28;19908;-76
2021/11/06 05:07:05;;;;;;;;;;;24.10;41.50;;;;;;5076816;28;20256;-79
2021/11/06 05:09:31;;;;;;;;;;;24.00;42.10;;;;;;5110936;28;19920;-78
2021/11/06 05:12:01;;;;;;;;;;;24.00;41.50;;;;;;5094440;28;19908;-77
2021/11/06 05:14:27;;;;;;;;;;;24.00;41.50;;;;;;5110331;28;19908;-78
2021/11/06 05:16:54;;;;;;;;;;;24.00;41.60;;;;;;5098206;28;19908;-76
2021/11/06 05:19:21;;;;;;;;;;;24.00;41.60;;;;;;5098073;28;20344;-81
2021/11/06 05:21:46;;;;;;;;;;;24.00;41.60;;;;;;5114255;28;19908;-76
2021/11/06 05:24:14;;;;;;;;;;;24.00;41.60;;;;;;5097357;28;19970;-77
2021/11/06 05:26:39;;;;;;;;;;;24.00;41.60;;;;;;5096798;28;19909;-78
2021/11/06 05:29:07;;;;;;;;;;;23.90;41.60;;;;;;5113937;28;19965;-80
2021/11/06 05:31:32;;;;;;;;;;;24.00;41.70;;;;;;5113692;28;20329;-76
2021/11/06 05:33:58;;;;;;;;;;;24.00;41.70;;;;;;5113980;28;19908;-79
2021/11/06 05:36:26;;;;;;;;;;;23.90;41.70;;;;;;5080051;28;19908;-82
2021/11/06 05:38:54;;;;;;;;;;;23.90;41.70;;;;;;5096453;28;20073;-76
2021/11/06 05:41:22;;;;;;;;;;;23.90;41.70;;;;;;5113798;28;20314;-79
2021/11/06 05:43:47;;;;;;;;;;;23.90;41.70;;;;;;5079906;28;19912;-77
2021/11/06 05:46:13;;;;;;;;;;;24.00;41.80;;;;;;5113632;28;20257;-78
2021/11/06 05:48:39;;;;;;;;;;;23.90;41.70;;;;;;5097031;28;20350;-79
2021/11/06 05:51:04;;;;;;;;;;;23.90;41.70;;;;;;5079660;28;19908;-77
2021/11/06 05:53:30;;;;;;;;;;;23.90;41.70;;;;;;5113495;28;20397;-77
2021/11/06 05:55:55;;;;;;;;;;;23.90;41.80;;;;;;5113620;28;19908;-80
2021/11/06 05:58:23;;;;;;;;;;;23.90;41.80;;;;;;5096569;28;20333;-78
2021/11/06 06:00:49;;;;;;;;;;;23.90;41.80;;;;;;5079731;28;19922;-78
2021/11/06 06:03:17;;;;;;;;;;;23.90;41.80;;;;;;5113511;28;19912;-76
2021/11/06 06:05:45;;;;;;;;;;;23.90;41.90;;;;;;5097259;28;19915;-81
2021/11/06 06:08:10;;;;;;;;;;;23.90;41.90;;;;;;5097316;28;20254;-80
2021/11/06 06:10:36;;;;;;;;;;;23.90;42.50;;;;;;5097366;28;19954;-80
2021/11/06 06:13:04;;;;;;;;;;;23.90;41.90;;;;;;5097277;28;19908;-80
2021/11/06 06:15:29;;;;;;;;;;;23.90;41.90;;;;;;5096204;28;19908;-77
2021/11/06 06:17:57;;;;;;;;;;;23.90;41.90;;;;;;5079697;28;20374;-79
2021/11/06 06:20:22;;;;;;;;;;;23.80;41.90;;;;;;5095670;28;19912;-78
2021/11/06 06:22:48;;;;;;;;;;;23.90;41.90;;;;;;5097015;28;19919;-79
2021/11/06 06:25:14;;;;;;;;;;;23.80;41.90;;;;;;5112992;28;19908;-78
2021/11/06 06:27:39;;;;;;;;;;;23.90;42.00;;;;;;5096364;28;19908;-78
2021/11/06 06:30:06;;;;;;;;;;;23.80;41.90;;;;;;5095866;28;19919;-78
2021/11/06 06:32:34;;;;;;;;;;;23.80;41.90;;;;;;5096035;28;19934;-77
2021/11/06 06:35:02;;;;;;;;;;;23.90;42.00;;;;;;5096702;28;20003;-78
2021/11/06 06:37:29;;;;;;;;;;;23.80;41.90;;;;;;5096804;28;19908;-78
2021/11/06 06:39:57;;;;;;;;;;;23.80;42.00;;;;;;5096296;28;20363;-76
2021/11/06 06:42:23;;;;;;;;;;;23.80;42.00;;;;;;5096710;28;19908;-78
2021/11/06 06:44:52;;;;;;;;;;;23.80;42.00;;;;;;5096165;28;20271;-78
2021/11/06 06:47:17;;;;;;;;;;;23.80;42.00;;;;;;5096748;28;20007;-77
2021/11/06 06:49:46;;;;;;;;;;;23.80;42.00;;;;;;5112568;28;19974;-77
2021/11/06 06:52:12;;;;;;;;;;;23.80;42.60;;;;;;5078590;28;19908;-79
2021/11/06 06:54:38;;;;;;;;;;;23.80;42.00;;;;;;5078233;28;19908;-78
2021/11/06 06:57:06;;;;;;;;;;;23.80;42.00;;;;;;5095079;28;20226;-80
2021/11/06 06:59:35;;;;;;;;;;;23.80;42.00;;;;;;5096122;28;20335;-78
2021/11/06 07:02:00;;;;;;;;;;;23.80;42.10;;;;;;5095998;28;19916;-77
2021/11/06 07:04:26;;;;;;;;;;;23.80;42.10;;;;;;5112014;28;19908;-79
2021/11/06 07:06:53;;;;;;;;;;;23.80;42.10;;;;;;5096199;28;19995;-78
2021/11/06 07:09:21;;;;;;;;;;;23.80;42.10;;;;;;5112552;28;19916;-76
2021/11/06 07:11:49;;;;;;;;;;;23.80;42.10;;;;;;5078524;28;19908;-78
2021/11/06 07:14:16;;;;;;;;;;;23.80;42.10;;;;;;5096198;28;19908;-79
2021/11/06 07:16:42;;;;;;;;;;;23.80;42.10;;;;;;5096103;28;20007;-77
2021/11/06 07:19:07;;;;;;;;;;;23.80;42.10;;;;;;5096029;28;19908;-79
2021/11/06 07:21:33;;;;;;;;;;;23.70;42.10;;;;;;5095631;28;19923;-77
2021/11/06 07:24:00;;;;;;;;;;;23.80;42.20;;;;;;5095750;28;19908;-79
2021/11/06 07:26:26;;;;;;;;;;;23.80;42.20;;;;;;5077918;28;20347;-78
2021/11/06 07:28:51;;;;;;;;;;;23.70;42.20;;;;;;5095616;28;19955;-77
2021/11/06 07:31:19;;;;;;;;;;;23.80;42.30;;;;;;5095663;28;20010;-78
2021/11/06 07:33:49;;;;;;;;;;;23.80;42.30;;;;;;5094420;28;20338;-79
2021/11/06 07:36:14;;;;;;;;;;;23.80;42.30;;;;;;5095655;28;19978;-77
2021/11/06 07:38:40;;;;;;;;;;;23.80;42.30;;;;;;5111381;28;20426;-79
2021/11/06 07:41:08;;;;;;;;;;;23.70;42.30;;;;;;5095901;28;20273;-80
2021/11/06 07:43:37;;;;;;;;;;;23.70;42.30;;;;;;5111785;28;19908;-78
2021/11/06 07:46:06;;;;;;;;;;;23.70;42.40;;;;;;5111265;28;19915;-76
2021/11/06 07:48:31;;;;;;;;;;;23.70;42.40;;;;;;5077700;28;20328;-77
2021/11/06 07:50:57;;;;;;;;;;;23.70;42.40;;;;;;5094483;28;20011;-77
2021/11/06 07:53:25;;;;;;;;;;;23.70;42.40;;;;;;5111480;28;20011;-77
2021/11/06 07:55:50;;;;;;;;;;;23.70;42.40;;;;;;5077434;28;19916;-81
2021/11/06 07:58:18;;;;;;;;;;;23.70;42.50;;;;;;5111525;28;20314;-77
2021/11/06 08:00:46;;;;;;;;;;;23.70;42.50;;;;;;5077381;28;19943;-80
2021/11/06 08:03:12;;;;;;;;;;;23.70;43.10;;;;;;5111096;28;19908;-78
2021/11/06 08:05:40;;;;;;;;;;;23.70;42.50;;;;;;5077389;28;19919;-77
2021/11/06 08:08:05;;;;;;;;;;;23.70;42.50;;;;;;5095023;28;19908;-76
2021/11/06 08:10:33;;;;;;;;;;;23.70;42.50;;;;;;5077288;28;20326;-76
2021/11/06 08:13:01;;;;;;;;;;;23.70;42.50;;;;;;5095295;28;19908;-79
2021/11/06 08:15:26;;;;;;;;;;;23.70;42.50;;;;;;5111306;28;19908;-77
2021/11/06 08:17:53;;;;;;;;;;;23.70;42.60;;;;;;5111262;28;20352;-77
2021/11/06 08:20:22;;;;;;;;;;;23.70;42.60;;;;;;5110737;28;19922;-77
2021/11/06 08:22:53;;;;;;;;;;;23.70;42.60;;;;;;5094996;28;20053;-77
2021/11/06 08:25:19;;;;;;;;;;;23.60;42.60;;;;;;5110832;28;19908;-76
2021/11/06 08:27:51;;;;;;;;;;;23.70;42.70;;;;;;5094909;28;19986;-75
2021/11/06 08:30:19;;;;;;;;;;;23.60;42.60;;;;;;5094058;28;19908;-77
2021/11/06 08:32:48;;;;;;;;;;;23.60;42.60;;;;;;5094899;28;19908;-76
2021/11/06 08:35:13;;;;;;;;;;;23.70;42.70;;;;;;5077078;28;20007;-76
2021/11/06 08:37:39;;;;;;;;;;;23.60;42.70;;;;;;5094894;28;19944;-76
2021/11/06 08:40:05;;;;;;;;;;;23.60;42.70;;;;;;5110836;28;19920;-77
2021/11/06 08:42:31;;;;;;;;;;;23.60;42.80;;;;;;5111283;28;20241;-78
2021/11/06 08:44:57;;;;;;;;;;;23.60;42.80;;;;;;5094105;28;19985;-79
2021/11/06 08:47:22;;;;;;;;;;;23.60;38.70;;;;;;5094739;28;19919;-76
2021/11/06 08:49:50;;;;;;;;;;;23.30;34.80;;;;;;5095779;28;19912;-75
2021/11/06 08:52:20;;;;;;;;;;;23.10;32.60;;;;;;5098660;28;19908;-76
2021/11/06 08:54:49;;;;;;;;;;;22.90;33.90;;;;;;5098687;28;19978;-77
2021/11/06 08:57:15;;;;;;;;;;;23.00;37.80;;;;;;5114629;28;19908;-76
2021/11/06 08:59:40;;;;;;;;;;;23.10;37.70;;;;;;5114452;28;19939;-76
2021/11/06 09:02:06;;;;;;;;;;;23.20;37.60;;;;;;5080479;28;20042;-76
2021/11/06 09:04:31;;;;;;;;;;;23.30;37.80;;;;;;5098043;28;19908;-76
2021/11/06 09:06:59;;;;;;;;;;;23.30;38.10;;;;;;5114690;28;19908;-77
2021/11/06 09:09:27;;;;;;;;;;;23.40;38.30;;;;;;5097233;28;20379;-76
2021/11/06 09:11:55;;;;;;;;;;;23.40;38.50;;;;;;5098611;28;19908;-75
2021/11/06 09:14:20;;;;;;;;;;;23.40;38.70;;;;;;5098497;28;19908;-76
2021/11/06 09:16:46;;;;;;;;;;;23.40;38.80;;;;;;5114546;28;19958;-76
2021/11/06 09:19:12;;;;;;;;;;;23.50;39.00;;;;;;5114653;28;19908;-76
2021/11/06 09:21:37;;;;;;;;;;;23.50;39.20;;;;;;5098074;28;20337;-81
2021/11/06 09:24:03;;;;;;;;;;;23.50;39.30;;;;;;5114409;28;20248;-77
2021/11/06 09:26:31;;;;;;;;;;;23.50;39.40;;;;;;5114076;28;20349;-77
2021/11/06 09:28:59;;;;;;;;;;;23.50;39.50;;;;;;5114019;28;19908;-77
2021/11/06 09:31:25;;;;;;;;;;;23.60;39.70;;;;;;5113780;28;20412;-80
2021/11/06 09:33:50;;;;;;;;;;;23.50;39.70;;;;;;5097851;28;19966;-76
2021/11/06 09:36:18;;;;;;;;;;;23.50;39.80;;;;;;5080150;28;20050;-77
2021/11/06 09:38:45;;;;;;;;;;;23.50;39.90;;;;;;5114293;28;20348;-74
2021/11/06 09:41:10;;;;;;;;;;;23.50;40.00;;;;;;5113995;28;20014;-75
2021/11/06 09:43:36;;;;;;;;;;;23.50;40.10;;;;;;5114038;28;19995;-77
2021/11/06 09:46:02;;;;;;;;;;;23.50;40.20;;;;;;5097170;28;19919;-76
2021/11/06 09:48:28;;;;;;;;;;;23.50;40.20;;;;;;5097902;28;19908;-78
2021/11/06 09:50:56;;;;;;;;;;;23.50;40.30;;;;;;5097925;28;19919;-76
2021/11/06 09:53:23;;;;;;;;;;;23.50;40.40;;;;;;5096329;28;20479;-75
2021/11/06 09:55:49;;;;;;;;;;;23.50;40.40;;;;;;5113488;28;19920;-76
2021/11/06 09:58:15;;;;;;;;;;;23.50;40.50;;;;;;5096518;28;20257;-75
2021/11/06 10:00:43;;;;;;;;;;;23.50;40.60;;;;;;5113369;28;19915;-76
2021/11/06 10:03:09;;;;;;;;;;;23.50;40.60;;;;;;5078458;28;19944;-76
2021/11/06 10:05:47;;;;;;;;;;;23.50;40.70;;;;;;5097148;28;19966;-77
2021/11/06 10:08:17;;;;;;;;;;;23.50;40.80;;;;;;5097733;28;20251;-77
2021/11/06 10:10:45;;;;;;;;;;;23.50;40.80;;;;;;5113463;28;20247;-77
2021/11/06 10:13:11;;;;;;;;;;;23.50;40.80;;;;;;5097316;28;19952;-80
2021/11/06 10:15:46;;;;;;;;;;;23.50;40.90;;;;;;5113484;28;19917;-75
2021/11/06 10:18:14;;;;;;;;;;;23.50;41.00;;;;;;5097174;28;19908;-77
2021/11/06 10:20:42;;;;;;;;;;;23.60;41.10;;;;;;5113378;28;19977;-78
2021/11/06 10:23:08;;;;;;;;;;;23.50;41.10;;;;;;5112750;28;20297;-78
2021/11/06 10:25:33;;;;;;;;;;;23.50;41.20;;;;;;5113169;28;19919;-78
2021/11/06 10:28:00;;;;;;;;;;;23.60;41.40;;;;;;5113408;28;19934;-75
2021/11/06 10:30:27;;;;;;;;;;;23.50;41.40;;;;;;5079073;28;20372;-77
2021/11/06 10:33:05;;;;;;;;;;;23.50;41.40;;;;;;5078977;28;19908;-77
2021/11/06 10:35:35;;;;;;;;;;;23.50;41.30;;;;;;5096705;28;19912;-76
2021/11/06 10:38:02;;;;;;;;;;;23.50;42.00;;;;;;5096832;28;19908;-76
2021/11/06 10:40:30;;;;;;;;;;;23.40;41.50;;;;;;5112918;28;19931;-78
2021/11/06 10:42:57;;;;;;;;;;;23.50;41.60;;;;;;5112516;28;19909;-77
2021/11/06 10:45:25;;;;;;;;;;;23.50;41.60;;;;;;5078907;28;19909;-76
2021/11/06 10:47:51;;;;;;;;;;;23.50;41.60;;;;;;5112878;28;19982;-77
2021/11/06 10:50:37;;;;;;;;;;;23.50;41.60;;;;;;5112606;28;19923;-82
2021/11/06 10:53:03;;;;;;;;;;;23.50;41.70;;;;;;5078519;28;19915;-75
2021/11/06 10:55:35;;;;;;;;;;;23.50;41.70;;;;;;5112585;28;20002;-76
2021/11/06 10:58:23;;;;;;;;;;;23.50;41.70;;;;;;5112256;28;20279;-77
2021/11/06 11:00:50;;;;;;;;;;;23.50;41.70;;;;;;5112015;28;19912;-76
2021/11/06 11:03:20;;;;;;;;;;;23.50;41.70;;;;;;5096419;28;19908;-76
2021/11/06 11:05:48;;;;;;;;;;;23.50;41.70;;;;;;5078651;28;19916;-76
2021/11/06 11:08:14;;;;;;;;;;;23.50;41.80;;;;;;5095047;28;19908;-75
2021/11/06 11:10:45;;;;;;;;;;;23.50;41.80;;;;;;5095966;28;20435;-74
2021/11/06 11:13:17;;;;;;;;;;;23.50;41.80;;;;;;5077872;28;20269;-74
2021/11/06 11:15:46;;;;;;;;;;;23.50;41.80;;;;;;5094990;28;20312;-76
2021/11/06 11:18:30;;;;;;;;;;;23.50;41.90;;;;;;5111951;28;19918;-78
2021/11/06 11:21:16;;;;;;;;;;;23.50;41.90;;;;;;5096038;28;19958;-77
2021/11/06 11:23:43;;;;;;;;;;;23.50;42.70;;;;;;5095876;28;19912;-79
2021/11/06 11:26:12;;;;;;;;;;;23.60;41.40;;;;;;5112417;28;19908;-78
2021/11/06 11:28:38;;;;;;;;;;;23.50;36.40;;;;;;5094594;28;19950;-78
2021/11/06 11:31:04;;;;;;;;;;;23.40;39.30;;;;;;5112522;28;19908;-79
2021/11/06 11:33:30;;;;;;;;;;;23.50;40.00;;;;;;5095930;28;19908;-78
2021/11/06 11:35:55;;;;;;;;;;;23.60;39.40;;;;;;5112076;28;19908;-79
2021/11/06 11:38:21;;;;;;;;;;;23.60;39.30;;;;;;5111929;28;19923;-77
2021/11/06 11:41:06;;;;;;;;;;;23.70;39.30;;;;;;5095032;28;19912;-80
2021/11/06 11:43:36;;;;;;;;;;;23.70;39.20;;;;;;5095684;28;20038;-77
2021/11/06 11:46:05;;;;;;;;;;;23.80;39.30;;;;;;5115263;28;19913;-77
2021/11/06 11:48:31;;;;;;;;;;;23.80;39.50;;;;;;5098315;28;19918;-77
2021/11/06 11:50:57;;;;;;;;;;;23.80;39.50;;;;;;5080764;28;19909;-77
2021/11/06 11:53:26;;;;;;;;;;;23.90;39.50;;;;;;5115485;28;20458;-76
2021/11/06 11:55:55;;;;;;;;;;;23.90;39.70;;;;;;5100084;28;19909;-77
2021/11/06 11:58:23;;;;;;;;;;;23.90;39.80;;;;;;5112808;28;19977;-77
2021/11/06 12:00:51;;;;;;;;;;;23.90;39.80;;;;;;5095508;28;19912;-76
2021/11/06 12:03:28;;;;;;;;;;;24.00;39.90;;;;;;5111640;28;19970;-77
2021/11/06 12:05:54;;;;;;;;;;;24.00;40.50;;;;;;5095234;28;19982;-78
2021/11/06 12:08:21;;;;;;;;;;;24.00;40.00;;;;;;5094653;28;19908;-77
2021/11/06 12:10:56;;;;;;;;;;;24.00;40.00;;;;;;5095507;28;19937;-78
2021/11/06 12:13:28;;;;;;;;;;;24.00;40.00;;;;;;5077815;28;20339;-79
2021/11/06 12:15:59;;;;;;;;;;;24.10;40.10;;;;;;5095651;28;19919;-78
2021/11/06 12:18:34;;;;;;;;;;;24.10;40.10;;;;;;5093897;28;20336;-79
2021/11/06 12:21:16;;;;;;;;;;;24.10;40.10;;;;;;5111292;28;20317;-76
2021/11/06 12:24:04;;;;;;;;;;;24.10;40.20;;;;;;5094873;28;19912;-78
2021/11/06 12:26:31;;;;;;;;;;;24.10;40.20;;;;;;5075431;28;19907;-76
2021/11/06 12:29:02;;;;;;;;;;;24.10;40.30;;;;;;5081361;28;19908;-79
2021/11/06 12:31:33;;;;;;;;;;;24.10;40.30;;;;;;5098878;28;20325;-77
2021/11/06 12:34:01;;;;;;;;;;;24.10;40.30;;;;;;5081312;28;19908;-78
2021/11/06 12:36:30;;;;;;;;;;;24.10;40.30;;;;;;5098184;28;19908;-78
2021/11/06 12:39:00;;;;;;;;;;;24.20;40.40;;;;;;5114851;28;19931;-77
2021/11/06 12:41:27;;;;;;;;;;;24.20;40.40;;;;;;5081487;28;19912;-76
2021/11/06 12:43:58;;;;;;;;;;;24.20;40.40;;;;;;5115049;28;19908;-79
2021/11/06 12:46:25;;;;;;;;;;;24.20;40.50;;;;;;5097909;28;19912;-77
2021/11/06 12:48:51;;;;;;;;;;;24.20;40.60;;;;;;5098764;28;19954;-76
2021/11/06 12:51:20;;;;;;;;;;;24.20;40.60;;;;;;5097941;28;20007;-77
2021/11/06 12:53:46;;;;;;;;;;;24.20;40.60;;;;;;5098584;28;19908;-78
2021/11/06 12:56:21;;;;;;;;;;;24.20;40.60;;;;;;5114960;28;19963;-76
2021/11/06 12:58:48;;;;;;;;;;;24.20;40.70;;;;;;5115190;28;19995;-78
2021/11/06 13:01:13;;;;;;;;;;;24.30;41.10;;;;;;5115042;28;20233;-78
2021/11/06 13:03:39;;;;;;;;;;;24.20;41.20;;;;;;5098508;28;19908;-77
2021/11/06 13:06:23;;;;;;;;;;;24.30;41.60;;;;;;5098629;28;19949;-78
2021/11/06 13:09:15;;;;;;;;;;;24.30;42.00;;;;;;5103386;28;19922;-75
2021/11/06 13:11:58;;;;;;;;;;;24.30;42.20;;;;;;5095921;28;19908;-77
2021/11/06 13:14:26;;;;;;;;;;;24.30;42.30;;;;;;5098702;28;19920;-78
2021/11/06 13:17:18;;;;;;;;;;;24.30;42.50;;;;;;5103117;28;19940;-76
2021/11/06 13:19:52;;;;;;;;;;;24.30;42.70;;;;;;5066750;28;19970;-80
2021/11/06 13:22:24;;;;;;;;;;;24.30;42.80;;;;;;5099500;28;19909;-76
2021/11/06 13:25:05;;;;;;;;;;;24.30;42.90;;;;;;5114899;28;20313;-80
2021/11/06 13:27:36;;;;;;;;;;;24.30;42.90;;;;;;5116143;28;20256;-77
2021/11/06 13:30:31;;;;;;;;;;;24.30;43.00;;;;;;5116268;28;19924;-79
2021/11/06 13:33:03;;;;;;;;;;;24.40;43.10;;;;;;5073030;28;19908;-80
2021/11/06 13:35:32;;;;;;;;;;;24.40;43.10;;;;;;5099348;28;19908;-79
2021/11/06 13:38:12;;;;;;;;;;;24.40;43.10;;;;;;5080719;28;20241;-77
2021/11/06 13:40:51;;;;;;;;;;;24.40;43.10;;;;;;5102510;28;19982;-76
2021/11/06 13:43:40;;;;;;;;;;;24.40;43.10;;;;;;5085746;28;19912;-79
2021/11/06 13:46:12;;;;;;;;;;;24.40;43.10;;;;;;5077118;28;19919;-77
2021/11/06 13:48:50;;;;;;;;;;;24.40;43.10;;;;;;5117790;28;20011;-79
2021/11/06 13:51:25;;;;;;;;;;;24.40;43.10;;;;;;5097595;28;19971;-77
2021/11/06 13:54:21;;;;;;;;;;;24.40;43.00;;;;;;5115544;28;20340;-81
2021/11/06 13:56:53;;;;;;;;;;;24.40;43.00;;;;;;5085074;28;19930;-78
2021/11/06 13:59:22;;;;;;;;;;;24.40;43.60;;;;;;5095979;28;19919;-79
2021/11/06 14:01:48;;;;;;;;;;;24.40;43.00;;;;;;5113715;28;20007;-77
2021/11/06 14:04:13;;;;;;;;;;;24.50;43.00;;;;;;5096909;28;19966;-77
2021/11/06 14:06:39;;;;;;;;;;;24.50;43.00;;;;;;5114759;28;19908;-79
2021/11/06 14:09:05;;;;;;;;;;;24.50;43.00;;;;;;5099259;28;19915;-77
2021/11/06 14:11:33;;;;;;;;;;;24.50;43.00;;;;;;5103230;28;19908;-76
2021/11/06 14:14:01;;;;;;;;;;;24.50;42.90;;;;;;5102459;28;19908;-78
2021/11/06 14:16:29;;;;;;;;;;;24.50;43.00;;;;;;5097282;28;19908;-78
2021/11/06 14:19:04;;;;;;;;;;;24.50;42.90;;;;;;5100884;28;19908;-77
2021/11/06 14:21:36;;;;;;;;;;;24.50;42.90;;;;;;5100375;28;19912;-78